Time;durP1;ratioP1;P1;durP2;ratioP2;P2;SDS_P1;SDS_P2;PMS_P1;PMS_P2;Temp;Humidity;BMP_temperature;BMP_pressure;BME280_temperature;BME280_humidity;BME280_pressure;Samples;Min_cycle;Max_cycle;Signal;HPM_P1;HPM_P2
2023/05/28 00:02:19;;;;;;;21.90;5.20;;;;;;;11.81;42.23;101441.94;110728;1212;97924;-60
2023/05/28 00:04:44;;;;;;;10.10;4.60;;;;;;;11.77;42.37;101438.30;110556;1208;138420;-60
2023/05/28 00:07:10;;;;;;;15.70;5.10;;;;;;;11.73;42.54;101432.13;110727;1212;97677;-60
2023/05/28 00:09:58;;;;;;;14.30;4.60;;;;;;;11.70;42.57;101432.05;110545;1208;138524;-60
2023/05/28 00:12:24;;;;;;;13.40;5.70;;;;;;;11.67;42.74;101429.48;110733;1212;97677;-60
2023/05/28 00:14:49;;;;;;;11.40;5.10;;;;;;;11.63;42.76;101427.14;110655;1208;97559;-60
2023/05/28 00:17:15;;;;;;;9.20;4.20;;;;;;;11.58;42.81;101425.50;110589;1212;138862;-60
2023/05/28 00:19:41;;;;;;;17.10;4.60;;;;;;;11.53;42.97;101426.05;110713;1208;97768;-60
2023/05/28 00:22:07;;;;;;;14.20;4.70;;;;;;;11.49;43.05;101425.98;110666;1211;138737;-60
2023/05/28 00:24:33;;;;;;;11.70;4.90;;;;;;;11.46;43.16;101421.45;110833;1208;97556;-60
2023/05/28 00:26:58;;;;;;;8.70;4.60;;;;;;;11.43;43.19;101419.97;110551;1210;107612;-60
2023/05/28 00:29:26;;;;;;;19.40;4.70;;;;;;;11.38;43.28;101419.92;110562;1212;137705;-61
2023/05/28 00:31:55;;;;;;;12.40;5.30;;;;;;;11.33;43.23;101417.96;110762;1208;98147;-61
2023/05/28 00:34:25;;;;;;;11.50;4.80;;;;;;;11.27;43.43;101418.72;110508;1212;138752;-60
2023/05/28 00:36:50;;;;;;;12.20;4.60;;;;;;;11.22;43.53;101419.96;110775;1209;99156;-61
2023/05/28 00:39:17;;;;;;;12.40;5.40;;;;;;;11.17;43.78;101420.30;110523;1208;138498;-61
2023/05/28 00:41:42;;;;;;;14.10;4.50;;;;;;;11.14;43.76;101422.90;110757;1212;97656;-59
2023/05/28 00:44:08;;;;;;;10.10;4.30;;;;;;;11.13;44.01;101423.47;110731;1208;111676;-62
2023/05/28 00:46:35;;;;;;;8.90;3.90;;;;;;;11.12;43.94;101424.59;110644;1209;138604;-59
2023/05/28 00:49:01;;;;;;;9.30;4.60;;;;;;;11.08;44.16;101422.56;110696;1212;97693;-59
2023/05/28 00:51:27;;;;;;;12.40;4.50;;;;;;;11.07;44.25;101422.42;110779;1212;139375;-60
2023/05/28 00:53:53;;;;;;;10.60;4.00;;;;;;;11.07;44.33;101424.40;110829;1212;111457;-59
2023/05/28 00:56:18;;;;;;;12.40;4.40;;;;;;;11.05;44.41;101422.85;111023;1208;97708;-60
2023/05/28 00:58:48;;;;;;;10.00;4.30;;;;;;;11.03;44.55;101420.39;110657;1208;139206;-60
2023/05/28 01:01:14;;;;;;;9.50;4.30;;;;;;;11.02;44.62;101417.41;110842;1212;97597;-58
2023/05/28 01:03:40;;;;;;;13.90;4.80;;;;;;;10.99;44.71;101416.42;110658;1212;138543;-60
2023/05/28 01:06:12;;;;;;;12.70;5.40;;;;;;;10.96;44.74;101412.21;110761;1212;97617;-59
2023/05/28 01:08:39;;;;;;;16.30;4.40;;;;;;;10.93;44.88;101410.00;110936;1210;108727;-59
2023/05/28 01:11:07;;;;;;;14.10;5.20;;;;;;;10.91;44.92;101407.58;110592;1208;138560;-59
2023/05/28 01:13:33;;;;;;;10.50;4.50;;;;;;;10.88;45.07;101404.80;110859;1208;97642;-59
2023/05/28 01:15:59;;;;;;;14.90;4.50;;;;;;;10.87;45.09;101407.35;110638;1209;137985;-59
2023/05/28 01:18:27;;;;;;;8.60;4.80;;;;;;;10.84;45.16;101399.42;110788;1212;97719;-59
2023/05/28 01:20:53;;;;;;;12.80;4.70;;;;;;;10.80;45.33;101395.06;110849;1213;97717;-59
2023/05/28 01:23:22;;;;;;;15.40;5.00;;;;;;;10.76;45.33;101393.05;110899;1209;138220;-59
2023/05/28 01:25:52;;;;;;;9.10;4.10;;;;;;;10.70;45.58;101386.78;110701;1208;110385;-59
2023/05/28 01:28:19;;;;;;;12.90;5.10;;;;;;;10.65;45.63;101385.86;110868;1208;138453;-59
2023/05/28 01:30:45;;;;;;;13.50;5.60;;;;;;;10.61;45.65;101389.21;110730;1208;97737;-60
2023/05/28 01:33:11;;;;;;;14.00;4.50;;;;;;;10.58;45.78;101388.41;110656;1208;140587;-61
2023/05/28 01:35:38;;;;;;;11.50;5.80;;;;;;;10.55;45.94;101389.44;110832;1212;97793;-61
2023/05/28 01:38:04;;;;;;;17.40;5.30;;;;;;;10.52;46.00;101389.52;110827;1214;100093;-60
2023/05/28 01:40:31;;;;;;;14.00;5.00;;;;;;;10.50;46.16;101389.75;110672;1208;139660;-61
2023/05/28 01:42:57;;;;;;;12.50;5.10;;;;;;;10.48;46.30;101388.95;110875;1208;99227;-61
2023/05/28 01:45:24;;;;;;;11.60;5.10;;;;;;;10.46;46.43;101391.67;110807;1209;138265;-61
2023/05/28 01:47:50;;;;;;;13.30;4.80;;;;;;;10.44;46.57;101392.81;110750;1209;99867;-60
2023/05/28 01:50:15;;;;;;;15.70;5.40;;;;;;;10.42;46.63;101394.48;110716;1212;98200;-60
2023/05/28 01:52:41;;;;;;;14.80;5.50;;;;;;;10.39;46.67;101397.25;110703;1208;138465;-61
2023/05/28 01:55:08;;;;;;;14.00;6.10;;;;;;;10.37;46.88;101398.23;110684;1213;97697;-61
2023/05/28 01:57:34;;;;;;;14.50;5.60;;;;;;;10.35;46.91;101400.44;110868;1209;138248;-61
2023/05/28 02:00:00;;;;;;;10.90;5.10;;;;;;;10.32;47.11;101399.09;110846;1208;99213;-60
2023/05/28 02:02:28;;;;;;;15.40;5.60;;;;;;;10.29;47.09;101400.45;110849;1210;97705;-61
2023/05/28 02:04:53;;;;;;;12.80;4.90;;;;;;;10.25;47.26;101394.48;110602;1212;138531;-61
2023/05/28 02:07:19;;;;;;;12.20;5.60;;;;;;;10.21;47.30;101393.17;110725;1212;98289;-60
2023/05/28 02:09:45;;;;;;;10.80;5.20;;;;;;;10.18;47.34;101390.73;110728;1212;138727;-60
2023/05/28 02:12:11;;;;;;;12.30;5.20;;;;;;;10.15;47.54;101390.13;110879;1208;96141;-61
2023/05/28 02:14:36;;;;;;;13.90;5.30;;;;;;;10.10;47.66;101387.39;110783;1212;97642;-61
2023/05/28 02:17:02;;;;;;;14.60;5.30;;;;;;;10.07;47.70;101380.88;110656;1208;137828;-61
2023/05/28 02:19:28;;;;;;;13.90;5.30;;;;;;;10.03;47.82;101380.45;110897;1208;97700;-61
2023/05/28 02:21:53;;;;;;;12.40;5.40;;;;;;;10.01;47.98;101378.38;110593;1209;138550;-60
2023/05/28 02:24:19;;;;;;;17.40;4.90;;;;;;;9.99;48.14;101377.19;110819;1208;97594;-60
2023/05/28 02:26:44;;;;;;;14.90;5.50;;;;;;;9.97;48.31;101366.36;110759;1210;97586;-60
2023/05/28 02:29:10;;;;;;;16.90;5.50;;;;;;;9.97;48.31;101373.15;110761;1212;139993;-60
2023/05/28 02:31:35;;;;;;;13.10;6.00;;;;;;;9.94;48.54;101373.21;110923;1208;97724;-60
2023/05/28 02:34:00;;;;;;;17.30;5.20;;;;;;;9.93;48.52;101377.37;110673;1213;138534;-61
2023/05/28 02:36:25;;;;;;;12.00;5.30;;;;;;;9.91;48.55;101382.44;110858;1208;97710;-61
2023/05/28 02:38:51;;;;;;;17.90;5.90;;;;;;;9.89;48.67;101382.84;110795;1212;97685;-61
2023/05/28 02:41:16;;;;;;;14.10;4.80;;;;;;;9.88;48.76;101385.73;110673;1212;138180;-59
2023/05/28 02:43:42;;;;;;;14.80;5.60;;;;;;;9.86;48.78;101383.11;110715;1212;97664;-61
2023/05/28 02:46:07;;;;;;;13.40;5.80;;;;;;;9.85;48.96;101385.83;110627;1208;139252;-60
2023/05/28 02:48:32;;;;;;;16.10;5.80;;;;;;;9.84;49.15;101386.73;110886;1213;97655;-60
2023/05/28 02:50:58;;;;;;;10.60;5.00;;;;;;;9.84;49.08;101386.93;110808;1208;97688;-59
2023/05/28 02:53:23;;;;;;;13.30;5.10;;;;;;;9.83;49.26;101388.73;110695;1212;139526;-60
2023/05/28 02:55:49;;;;;;;15.80;6.50;;;;;;;9.82;49.31;101388.40;110768;1209;97706;-60
2023/05/28 02:58:15;;;;;;;16.40;5.40;;;;;;;9.81;49.32;101393.26;110616;1211;138472;-60
2023/05/28 03:00:41;;;;;;;12.60;5.10;;;;;;;9.80;49.51;101394.54;110826;1209;97604;-59
2023/05/28 03:03:06;;;;;;;14.00;4.80;;;;;;;9.78;49.55;101392.26;110680;1208;138391;-60
2023/05/28 03:05:32;;;;;;;15.30;5.10;;;;;;;9.78;49.62;101393.34;110692;1212;97741;-60
2023/05/28 03:08:01;;;;;;;13.90;5.10;;;;;;;9.77;49.68;101392.27;110778;1209;97683;-60
2023/05/28 03:10:26;;;;;;;14.20;5.00;;;;;;;9.76;49.83;101393.38;110676;1212;140004;-60
2023/05/28 03:12:52;;;;;;;14.90;5.30;;;;;;;9.76;49.88;101394.11;110859;1210;97698;-60
2023/05/28 03:15:17;;;;;;;15.90;5.40;;;;;;;9.74;50.06;101397.36;110909;1212;138170;-60
2023/05/28 03:17:43;;;;;;;9.50;5.00;;;;;;;9.73;50.03;101395.79;110768;1211;97795;-60
2023/05/28 03:20:10;;;;;;;13.20;5.20;;;;;;;9.71;50.11;101388.15;110794;1208;97597;-60
2023/05/28 03:22:36;;;;;;;13.50;5.20;;;;;;;9.70;50.20;101391.05;110769;1212;138049;-60
2023/05/28 03:25:08;;;;;;;11.50;4.90;;;;;;;9.69;50.19;101388.05;110850;1212;111584;-60
2023/05/28 03:27:33;;;;;;;12.40;6.00;;;;;;;9.70;50.41;101390.34;110692;1211;138553;-60
2023/05/28 03:29:59;;;;;;;16.20;5.60;;;;;;;9.69;50.40;101385.17;110678;1208;97392;-60
2023/05/28 03:32:24;;;;;;;12.30;4.80;;;;;;;9.69;50.40;101387.33;110795;1208;96353;-60
2023/05/28 03:34:49;;;;;;;16.20;6.00;;;;;;;9.69;50.51;101385.17;110670;1212;139287;-60
2023/05/28 03:37:14;;;;;;;13.50;4.80;;;;;;;9.69;50.63;101383.40;110874;1208;97716;-60
2023/05/28 03:39:40;;;;;;;9.60;4.60;;;;;;;9.69;50.64;101381.61;110671;1212;138476;-61
2023/05/28 03:42:07;;;;;;;10.20;4.80;;;;;;;9.71;50.60;101385.30;110790;1208;97629;-61
2023/05/28 03:44:34;;;;;;;10.60;4.70;;;;;;;9.73;50.68;101384.89;110842;1212;98106;-61
2023/05/28 03:47:00;;;;;;;12.10;5.10;;;;;;;9.75;50.75;101382.52;110784;1208;137761;-61
2023/05/28 03:49:25;;;;;;;11.50;5.00;;;;;;;9.76;50.88;101382.32;110925;1212;98005;-60
2023/05/28 03:51:50;;;;;;;15.30;5.00;;;;;;;9.77;50.86;101379.43;110617;1209;138210;-61
2023/05/28 03:54:15;;;;;;;13.90;4.70;;;;;;;9.79;51.00;101381.35;110846;1212;98055;-61
2023/05/28 03:56:41;;;;;;;9.10;4.40;;;;;;;9.81;50.94;101383.79;110739;1210;97672;-61
2023/05/28 03:59:06;;;;;;;12.30;4.80;;;;;;;9.83;51.04;101384.98;110773;1208;138205;-61
2023/05/28 04:01:33;;;;;;;11.20;4.60;;;;;;;9.86;51.13;101385.07;110745;1212;97613;-60
2023/05/28 04:03:59;;;;;;;10.30;5.00;;;;;;;9.88;51.19;101386.61;110680;1208;138720;-60
2023/05/28 04:06:24;;;;;;;10.40;4.20;;;;;;;9.89;51.14;101387.83;110731;1208;97664;-61
2023/05/28 04:08:50;;;;;;;13.90;5.00;;;;;;;9.90;51.29;101386.38;110797;1208;99146;-61
2023/05/28 04:11:15;;;;;;;11.10;5.10;;;;;;;9.92;51.34;101384.89;110675;1211;140104;-60
2023/05/28 04:13:40;;;;;;;13.30;4.60;;;;;;;9.94;51.35;101385.39;110883;1208;97581;-61
2023/05/28 04:16:07;;;;;;;12.00;4.70;;;;;;;9.95;51.42;101386.40;110686;1212;138504;-61
2023/05/28 04:18:33;;;;;;;13.70;5.50;;;;;;;9.96;51.48;101387.99;110842;1212;95079;-61
2023/05/28 04:20:58;;;;;;;13.30;4.80;;;;;;;9.98;51.40;101388.66;110745;1212;97687;-61
2023/05/28 04:23:24;;;;;;;11.90;4.80;;;;;;;10.00;51.54;101390.73;110645;1212;138119;-61
2023/05/28 04:25:50;;;;;;;7.90;4.20;;;;;;;10.03;51.55;101384.20;110693;1213;97663;-61
2023/05/28 04:28:15;;;;;;;10.20;4.60;;;;;;;10.05;51.69;101386.84;110727;1212;139629;-61
2023/05/28 04:30:41;;;;;;;15.10;4.70;;;;;;;10.07;51.70;101389.45;110728;1212;100026;-61
2023/05/28 04:33:06;;;;;;;9.70;4.40;;;;;;;10.10;51.83;101387.58;110661;1209;140304;-61
2023/05/28 04:35:32;;;;;;;10.70;4.90;;;;;;;10.14;51.97;101389.25;110766;1208;97594;-61
2023/05/28 04:37:59;;;;;;;9.60;4.50;;;;;;;10.18;51.91;101386.27;110602;1208;97677;-61
2023/05/28 04:40:25;;;;;;;10.30;4.30;;;;;;;10.22;52.04;101384.22;110592;1212;139415;-60
2023/05/28 04:42:53;;;;;;;10.10;4.60;;;;;;;10.27;52.13;101384.07;110818;1212;98576;-61
2023/05/28 04:45:19;;;;;;;8.80;4.40;;;;;;;10.31;52.03;101382.52;110688;1208;139122;-61
2023/05/28 04:47:44;;;;;;;8.70;4.20;;;;;;;10.35;52.19;101377.92;110711;1213;97787;-60
2023/05/28 04:50:09;;;;;;;17.30;5.00;;;;;;;10.39;52.07;101377.98;110792;1210;97711;-60
2023/05/28 04:52:35;;;;;;;10.70;4.70;;;;;;;10.43;52.31;101376.77;110399;1208;138442;-59
2023/05/28 04:55:04;;;;;;;9.60;4.30;;;;;;;10.47;52.29;101371.45;110736;1212;97593;-60
2023/05/28 04:57:30;;;;;;;9.70;4.50;;;;;;;10.52;52.30;101371.10;110709;1212;138453;-60
2023/05/28 04:59:56;;;;;;;13.10;4.50;;;;;;;10.57;52.38;101370.05;110819;1208;97480;-60
2023/05/28 05:02:23;;;;;;;12.60;4.70;;;;;;;10.63;52.35;101371.80;110806;1208;97693;-60
2023/05/28 05:04:48;;;;;;;11.80;4.70;;;;;;;10.71;52.46;101374.23;110612;1209;138938;-59
2023/05/28 05:07:14;;;;;;;9.30;4.20;;;;;;;10.79;52.42;101379.19;110748;1212;97603;-59
2023/05/28 05:09:40;;;;;;;9.70;5.10;;;;;;;10.86;52.56;101372.86;110696;1209;139175;-60
2023/05/28 05:12:07;;;;;;;12.20;4.60;;;;;;;10.92;52.55;101374.29;110731;1212;96465;-60
2023/05/28 05:14:33;;;;;;;10.00;4.40;;;;;;;10.98;52.61;101373.38;110951;1210;97643;-60
2023/05/28 05:16:58;;;;;;;13.10;5.00;;;;;;;11.03;52.71;101369.23;110587;1208;140445;-59
2023/05/28 05:19:25;;;;;;;11.30;4.80;;;;;;;11.09;52.62;101369.41;110739;1208;97683;-59
2023/05/28 05:21:50;;;;;;;9.20;4.50;;;;;;;11.15;52.51;101367.27;110483;1223;139482;-60
2023/05/28 05:24:15;;;;;;;9.10;4.20;;;;;;;11.22;52.63;101370.23;110825;1208;97780;-59
2023/05/28 05:26:40;;;;;;;12.30;4.30;;;;;;;11.28;52.46;101371.63;110739;1216;97680;-60
2023/05/28 05:29:06;;;;;;;13.40;5.30;;;;;;;11.34;52.44;101374.08;110646;1208;138444;-59
2023/05/28 05:31:31;;;;;;;7.80;4.20;;;;;;;11.41;52.44;101367.79;110888;1208;97576;-59
2023/05/28 05:33:57;;;;;;;10.90;4.00;;;;;;;11.51;52.34;101368.13;110680;1212;138467;-59
2023/05/28 05:36:22;;;;;;;10.50;4.10;;;;;;;11.61;52.22;101371.17;110772;1208;98126;-60
2023/05/28 05:38:47;;;;;;;9.20;4.00;;;;;;;11.72;52.21;101368.09;110830;1208;98337;-60
2023/05/28 05:41:13;;;;;;;8.60;4.20;;;;;;;11.81;52.20;101368.33;110622;1212;138375;-60
2023/05/28 05:43:38;;;;;;;9.10;4.00;;;;;;;11.88;52.01;101360.54;110731;1209;97711;-59
2023/05/28 05:46:03;;;;;;;10.40;3.60;;;;;;;11.96;51.89;101364.19;110449;1212;138347;-60
2023/05/28 05:48:29;;;;;;;10.30;4.20;;;;;;;12.04;51.90;101362.43;110691;1210;97631;-60
2023/05/28 05:50:55;;;;;;;9.20;4.20;;;;;;;12.14;51.72;101363.49;110805;1211;97644;-60
2023/05/28 05:53:21;;;;;;;11.10;3.80;;;;;;;12.22;51.59;101367.12;110781;1213;138877;-60
2023/05/28 05:55:47;;;;;;;7.40;3.40;;;;;;;12.31;51.57;101366.95;110713;1213;97684;-60
2023/05/28 05:58:13;;;;;;;8.00;3.50;;;;;;;12.39;51.41;101363.40;110722;1208;138506;-60
2023/05/28 06:00:40;;;;;;;8.10;3.40;;;;;;;12.51;51.29;101362.56;110798;1209;111493;-59
2023/05/28 06:03:06;;;;;;;10.40;3.50;;;;;;;12.61;51.24;101363.60;110645;1210;138743;-59
2023/05/28 06:05:32;;;;;;;6.80;3.00;;;;;;;12.72;51.04;101362.80;110803;1213;97687;-59
2023/05/28 06:07:57;;;;;;;7.50;3.50;;;;;;;12.80;50.98;101366.05;110803;1210;97697;-60
2023/05/28 06:10:23;;;;;;;7.90;3.20;;;;;;;12.89;50.83;101363.19;110670;1214;138350;-60
2023/05/28 06:12:48;;;;;;;9.20;3.80;;;;;;;12.96;50.68;101360.88;110795;1212;97720;-59
2023/05/28 06:15:13;;;;;;;7.80;3.10;;;;;;;13.04;50.56;101362.69;110635;1212;137780;-59
2023/05/28 06:17:39;;;;;;;8.60;3.30;;;;;;;13.11;50.37;101363.29;110724;1208;97686;-60
2023/05/28 06:20:06;;;;;;;10.20;3.80;;;;;;;13.18;50.28;101366.95;110729;1213;97684;-60
2023/05/28 06:22:32;;;;;;;6.00;3.50;;;;;;;13.25;50.18;101360.55;110674;1213;138907;-60
2023/05/28 06:24:58;;;;;;;7.60;3.70;;;;;;;13.33;50.19;101360.76;110648;1208;99730;-60
2023/05/28 06:27:23;;;;;;;7.30;3.40;;;;;;;13.40;49.97;101362.27;110510;1212;137845;-60
2023/05/28 06:29:48;;;;;;;6.30;3.70;;;;;;;13.46;49.85;101360.17;110633;1212;97714;-60
2023/05/28 06:32:14;;;;;;;8.50;3.50;;;;;;;13.53;49.82;101358.28;110709;1212;97698;-59
2023/05/28 06:34:39;;;;;;;9.30;3.80;;;;;;;13.61;49.76;101358.79;110831;1212;139386;-60
2023/05/28 06:37:05;;;;;;;8.50;4.50;;;;;;;13.72;49.72;101355.98;110689;1212;97718;-60
2023/05/28 06:39:31;;;;;;;5.10;3.10;;;;;;;13.81;49.56;101356.09;110681;1214;137943;-60
2023/05/28 06:41:56;;;;;;;7.90;3.20;;;;;;;13.90;49.44;101353.70;110702;1209;97687;-60
2023/05/28 06:44:22;;;;;;;15.70;3.70;;;;;;;13.98;49.34;101352.64;110595;1214;97971;-60
2023/05/28 06:46:47;;;;;;;8.60;3.60;;;;;;;14.08;49.28;101353.05;110617;1213;137763;-59
2023/05/28 06:49:13;;;;;;;7.60;3.20;;;;;;;14.16;49.17;101353.92;110698;1213;98510;-59
2023/05/28 06:51:38;;;;;;;10.50;3.60;;;;;;;14.25;49.00;101352.09;110552;1214;139090;-59
2023/05/28 06:54:03;;;;;;;9.80;3.00;;;;;;;14.32;48.83;101348.86;110748;1208;97546;-59
2023/05/28 06:56:29;;;;;;;6.20;2.60;;;;;;;14.41;48.71;101349.52;110692;1212;97715;-59
2023/05/28 06:58:54;;;;;;;8.80;2.80;;;;;;;14.49;48.65;101349.00;110628;1208;137878;-59
2023/05/28 07:01:20;;;;;;;8.10;3.00;;;;;;;14.56;48.54;101354.91;110739;1208;97605;-59
2023/05/28 07:03:45;;;;;;;4.50;2.60;;;;;;;14.67;48.31;101350.45;111234;1210;138366;-60
2023/05/28 07:06:11;;;;;;;5.00;2.40;;;;;;;14.79;48.03;101350.55;110738;1208;97687;-59
2023/05/28 07:08:40;;;;;;;4.40;1.60;;;;;;;14.89;47.98;101355.45;110631;1208;99611;-59
2023/05/28 07:11:06;;;;;;;10.10;1.90;;;;;;;15.00;47.71;101352.55;110561;1224;138202;-59
2023/05/28 07:13:31;;;;;;;4.70;2.30;;;;;;;15.12;47.51;101351.95;110784;1212;97647;-59
2023/05/28 07:15:57;;;;;;;7.70;2.20;;;;;;;15.21;47.17;101349.32;110893;1208;139095;-59
2023/05/28 07:18:23;;;;;;;2.80;1.80;;;;;;;15.25;47.02;101343.33;110712;1213;97684;-59
2023/05/28 07:20:49;;;;;;;6.40;1.90;;;;;;;15.31;46.77;101345.22;110681;1212;97667;-60
2023/05/28 07:23:14;;;;;;;4.10;1.70;;;;;;;15.39;46.46;101340.30;110598;1214;138526;-60
2023/05/28 07:25:42;;;;;;;5.00;2.20;;;;;;;15.47;46.33;101346.74;110748;1208;98780;-60
2023/05/28 07:28:07;;;;;;;6.60;2.00;;;;;;;15.53;46.01;101348.91;110604;1208;138272;-59
2023/05/28 07:30:33;;;;;;;8.60;1.50;;;;;;;15.61;45.74;101346.70;110677;1212;97652;-59
2023/05/28 07:32:58;;;;;;;3.30;1.60;;;;;;;15.71;45.70;101348.67;110691;1209;97741;-60
2023/05/28 07:35:23;;;;;;;4.30;1.90;;;;;;;15.79;45.40;101346.65;110674;1208;138695;-60
2023/05/28 07:37:48;;;;;;;3.60;2.30;;;;;;;15.84;45.11;101344.88;110859;1208;97801;-59
2023/05/28 07:40:14;;;;;;;5.70;2.30;;;;;;;15.92;44.98;101346.48;110620;1213;138150;-60
2023/05/28 07:42:39;;;;;;;6.90;1.60;;;;;;;15.97;44.85;101347.84;110780;1208;97910;-59
2023/05/28 07:45:05;;;;;;;4.70;2.00;;;;;;;16.04;44.73;101350.10;110556;1208;137844;-62
2023/05/28 07:47:30;;;;;;;6.30;2.00;;;;;;;16.14;44.33;101351.56;111027;1208;97675;-62
2023/05/28 07:49:56;;;;;;;7.60;1.80;;;;;;;16.19;44.27;101350.00;110777;1208;97609;-61
2023/05/28 07:52:21;;;;;;;4.90;2.00;;;;;;;16.26;44.06;101350.33;110617;1208;138530;-61
2023/05/28 07:54:46;;;;;;;4.50;1.40;;;;;;;16.33;43.87;101343.27;110723;1209;97578;-61
2023/05/28 07:57:13;;;;;;;6.70;1.80;;;;;;;16.44;43.78;101343.35;110774;1214;138646;-61
2023/05/28 07:59:39;;;;;;;6.90;1.90;;;;;;;16.53;43.50;101343.06;110751;1213;97731;-61
2023/05/28 08:02:04;;;;;;;5.90;1.80;;;;;;;16.59;43.31;101344.35;110700;1208;97976;-61
2023/05/28 08:04:29;;;;;;;4.80;1.40;;;;;;;16.61;42.96;101338.61;110679;1211;139600;-61
2023/05/28 08:06:55;;;;;;;11.10;1.50;;;;;;;16.66;42.76;101339.43;110709;1208;97673;-62
2023/05/28 08:09:21;;;;;;;10.60;2.20;;;;;;;16.71;42.52;101344.56;110657;1213;138140;-61
2023/05/28 08:11:46;;;;;;;7.20;1.60;;;;;;;16.77;42.51;101344.56;110768;1208;97610;-61
2023/05/28 08:14:11;;;;;;;6.90;1.70;;;;;;;16.86;42.32;101343.67;110724;1208;97641;-61
2023/05/28 08:16:37;;;;;;;3.50;2.00;;;;;;;16.94;41.96;101336.92;110746;1208;139491;-62
2023/05/28 08:19:02;;;;;;;8.40;1.60;;;;;;;17.00;41.74;101336.19;110728;1208;98111;-61
2023/05/28 08:21:27;;;;;;;10.10;2.50;;;;;;;17.06;41.65;101338.73;110756;1211;138374;-61
2023/05/28 08:23:54;;;;;;;7.70;2.00;;;;;;;17.09;41.46;101332.91;110758;1212;103106;-61
2023/05/28 08:26:21;;;;;;;9.80;2.40;;;;;;;17.10;41.08;101322.90;110960;1208;96097;-61
2023/05/28 08:28:46;;;;;;;9.60;1.70;;;;;;;17.12;40.72;101320.44;110682;1209;138277;-61
2023/05/28 08:31:12;;;;;;;5.70;1.40;;;;;;;17.16;40.74;101319.11;110915;1214;96281;-61
2023/05/28 08:33:37;;;;;;;7.50;1.80;;;;;;;17.25;40.63;101316.47;110631;1208;137739;-61
2023/05/28 08:36:02;;;;;;;4.70;1.50;;;;;;;17.32;40.61;101313.86;110847;1208;97698;-61
2023/05/28 08:38:29;;;;;;;9.20;1.50;;;;;;;17.37;40.31;101308.14;110854;1208;97581;-62
2023/05/28 08:40:55;;;;;;;5.00;1.40;;;;;;;17.43;40.31;101304.66;110674;1214;139775;-62
2023/05/28 08:43:22;;;;;;;4.30;1.40;;;;;;;17.48;40.22;101297.31;110817;1212;97735;-61
2023/05/28 08:45:51;;;;;;;5.80;1.30;;;;;;;17.53;40.00;101293.37;110638;1208;139872;-61
2023/05/28 08:48:17;;;;;;;2.70;0.90;;;;;;;17.60;39.48;101291.52;110601;1214;99464;-61
2023/05/28 08:50:47;;;;;;;5.80;1.80;;;;;;;17.63;39.39;101292.63;110636;1208;98686;-61
2023/05/28 08:53:17;;;;;;;4.10;1.40;;;;;;;17.61;39.16;101288.71;110611;1213;139340;-61
2023/05/28 08:55:44;;;;;;;3.20;1.40;;;;;;;17.64;39.07;101292.02;113073;1208;102667;-62
2023/05/28 08:58:10;;;;;;;4.20;1.20;;;;;;;17.73;39.05;101293.23;113038;1209;138407;-63
2023/05/28 09:00:37;;;;;;;3.70;1.40;;;;;;;17.86;38.91;101290.07;113070;1209;95816;-66
2023/05/28 09:03:07;;;;;;;5.30;1.40;;;;;;;17.91;38.68;101277.44;110923;1212;97702;-65
2023/05/28 09:05:36;;;;;;;3.90;1.80;;;;;;;18.02;38.65;101282.23;110681;1207;96863;-63
2023/05/28 09:08:02;;;;;;;6.90;1.20;;;;;;;18.09;38.43;101277.73;110724;1211;103137;-64
2023/05/28 09:10:27;;;;;;;6.00;1.30;;;;;;;18.14;38.24;101275.98;110588;1208;138972;-64
2023/05/28 09:12:58;;;;;;;4.80;1.20;;;;;;;18.18;38.15;101275.73;110771;1211;97622;-64
2023/05/28 09:15:23;;;;;;;3.30;1.20;;;;;;;18.25;38.20;101275.05;110978;1209;140217;-63
2023/05/28 09:17:49;;;;;;;6.80;1.60;;;;;;;18.35;38.04;101277.45;110771;1209;97579;-64
2023/05/28 09:20:15;;;;;;;6.70;1.60;;;;;;;18.47;37.88;101274.48;110840;1208;97758;-64
2023/05/28 09:22:40;;;;;;;7.90;1.80;;;;;;;18.63;37.68;101273.80;110727;1208;138443;-64
2023/05/28 09:25:09;;;;;;;4.40;1.50;;;;;;;18.72;37.54;101271.91;110792;1209;97828;-61
2023/05/28 09:27:36;;;;;;;4.00;1.50;;;;;;;18.76;37.43;101268.23;110763;1211;138087;-60
2023/05/28 09:30:09;;;;;;;4.00;1.30;;;;;;;18.76;37.19;101273.08;111001;1208;97700;-62
2023/05/28 09:32:35;;;;;;;4.10;1.60;;;;;;;18.78;37.11;101268.78;110974;1212;99084;-62
2023/05/28 09:35:01;;;;;;;5.40;1.20;;;;;;;18.81;36.87;101270.27;110797;1208;139127;-63
2023/05/28 09:37:29;;;;;;;4.30;1.70;;;;;;;18.73;36.61;101270.81;110946;1207;99559;-62
2023/05/28 09:40:03;;;;;;;9.90;1.30;;;;;;;18.75;36.66;101271.56;110649;1222;138316;-63
2023/05/28 09:42:39;;;;;;;3.30;1.30;;;;;;;18.82;36.69;101266.58;110800;1214;99207;-62
2023/05/28 09:45:05;;;;;;;3.40;1.50;;;;;;;18.93;36.48;101268.67;110864;1215;137990;-61
2023/05/28 09:47:30;;;;;;;8.80;1.30;;;;;;;19.06;36.50;101263.09;110932;1210;97563;-61
2023/05/28 09:49:56;;;;;;;1.50;1.20;;;;;;;19.13;36.22;101263.50;110815;1209;98097;-62
2023/05/28 09:52:22;;;;;;;4.00;1.40;;;;;;;19.17;36.10;101260.35;110688;1209;138281;-62
2023/05/28 09:54:51;;;;;;;4.50;1.50;;;;;;;19.17;35.99;101258.19;110789;1214;97794;-61
2023/05/28 09:57:22;;;;;;;3.50;1.30;;;;;;;19.07;35.75;101251.45;110755;1212;138404;-63
2023/05/28 09:59:53;;;;;;;5.80;1.20;;;;;;;18.82;35.41;101250.60;111016;1213;102729;-63
2023/05/28 10:02:47;;;;;;;5.10;1.50;;;;;;;18.79;35.62;101249.23;110890;1213;97655;-63
2023/05/28 10:05:16;;;;;;;7.20;1.30;;;;;;;18.94;35.72;101247.64;110752;1209;138004;-62
2023/05/28 10:07:44;;;;;;;7.20;1.60;;;;;;;19.10;35.73;101247.27;110783;1214;97773;-63
2023/05/28 10:10:14;;;;;;;4.50;1.80;;;;;;;19.24;35.81;101244.43;110754;1208;139308;-62
2023/05/28 10:12:40;;;;;;;6.80;2.40;;;;;;;19.39;35.75;101241.73;110752;1212;103781;-63
2023/05/28 10:15:07;;;;;;;8.60;1.80;;;;;;;19.52;35.64;101246.88;110721;1209;140328;-59
2023/05/28 10:17:33;;;;;;;8.80;1.90;;;;;;;19.60;35.62;101245.73;110917;1212;97723;-62
2023/05/28 10:19:59;;;;;;;2.80;1.40;;;;;;;19.69;35.47;101242.90;111067;1209;98083;-62
2023/05/28 10:22:24;;;;;;;6.30;1.40;;;;;;;19.81;35.46;101246.56;110764;1212;137726;-62
2023/05/28 10:24:50;;;;;;;7.40;1.80;;;;;;;19.92;35.35;101242.69;110852;1208;97605;-62
2023/05/28 10:27:16;;;;;;;7.80;2.10;;;;;;;19.99;35.18;101239.45;110848;1208;138686;-62
2023/05/28 10:29:43;;;;;;;6.60;1.30;;;;;;;20.03;35.15;101237.83;110856;1212;97600;-63
2023/05/28 10:32:09;;;;;;;5.30;2.10;;;;;;;20.10;35.09;101236.62;110963;1212;102991;-63
2023/05/28 10:34:36;;;;;;;4.20;1.60;;;;;;;20.19;34.95;101236.34;110779;1221;137877;-63
2023/05/28 10:37:06;;;;;;;7.60;1.80;;;;;;;20.23;34.88;101240.05;110884;1212;98228;-62
2023/05/28 10:39:39;;;;;;;7.30;1.90;;;;;;;20.28;34.79;101239.66;110782;1212;137944;-62
2023/05/28 10:42:09;;;;;;;6.00;1.80;;;;;;;20.28;34.52;101233.86;110867;1212;97656;-62
2023/05/28 10:44:59;;;;;;;4.80;1.50;;;;;;;20.30;34.47;101232.42;110928;1212;103048;-62
2023/05/28 10:47:38;;;;;;;5.70;1.40;;;;;;;20.30;34.44;101229.48;110740;1214;138188;-62
2023/05/28 10:50:14;;;;;;;6.50;1.40;;;;;;;20.35;34.47;101226.77;110926;1214;99768;-62
2023/05/28 10:52:40;;;;;;;5.10;1.30;;;;;;;20.39;34.32;101223.25;110779;1212;140389;-63
2023/05/28 10:55:10;;;;;;;3.20;1.20;;;;;;;20.40;34.13;101219.54;110869;1209;97695;-62
2023/05/28 10:57:44;;;;;;;7.60;1.80;;;;;;;20.37;34.09;101220.79;110738;1210;139395;-63
2023/05/28 11:00:14;;;;;;;8.20;1.30;;;;;;;20.37;33.98;101212.30;110884;1212;98085;-62
2023/05/28 11:02:43;;;;;;;5.80;1.40;;;;;;;20.46;33.99;101213.65;110948;1208;99982;-62
2023/05/28 11:05:09;;;;;;;6.30;1.50;;;;;;;20.55;33.86;101214.61;110840;1212;137803;-62
2023/05/28 11:07:39;;;;;;;5.00;1.60;;;;;;;20.62;33.75;101214.04;110941;1212;97583;-62
2023/05/28 11:10:14;;;;;;;6.80;1.00;;;;;;;20.68;33.66;101211.23;110763;1212;137906;-62